Řízení letového provozu České republiky
Letiste: LKPR Aktualizace: 27.02.2017 11:06:08  UTC
 METAR LKPR 27.02. 11:00 ...
METAR LKPR 271100Z 14005KT CAVOK 11/M01 Q1009 NOSIG RMK REG QNH 1004=
 TAF LKPR 27.02. 05:00 ...
TAF LKPR 270500Z 2706/2812 17008KT CAVOK      BECMG 2708/2710 20012KT      BECMG 2804/2807 23014KT 9999 BKN035      TEMPO 2807/2812 8000 -RA BKN025=